Time;durP1;ratioP1;P1;durP2;ratioP2;P2;SDS_P1;SDS_P2;PMS_P1;PMS_P2;Temp;Humidity;BMP_temperature;BMP_pressure;BME280_temperature;BME280_humidity;BME280_pressure;Samples;Min_cycle;Max_cycle;Signal;HPM_P1;HPM_P2
2021/04/04 00:00:32;;;;;;;24.98;3.58;;;6.50;99.90;;;;;;5071340;28;20036;-73
2021/04/04 00:02:57;;;;;;;15.95;3.80;;;6.50;99.90;;;;;;5073767;28;20036;-74
2021/04/04 00:05:24;;;;;;;25.15;4.25;;;6.40;99.90;;;;;;5072307;28;20028;-77
2021/04/04 00:07:50;;;;;;;20.13;4.15;;;6.50;99.90;;;;;;5066482;28;20039;-73
2021/04/04 00:10:16;;;;;;;22.40;3.78;;;6.60;99.90;;;;;;5071781;28;20032;-72
2021/04/04 00:12:42;;;;;;;24.88;3.80;;;6.60;99.90;;;;;;5067341;28;20013;-74
2021/04/04 00:15:11;;;;;;;17.02;4.65;;;6.60;99.90;;;;;;5067858;28;20097;-75
2021/04/04 00:17:36;;;;;;;22.13;4.05;;;6.60;99.90;;;;;;5068407;28;20112;-75
2021/04/04 00:20:11;;;;;;;22.95;3.58;;;6.50;99.90;;;;;;5058314;28;20045;-76
2021/04/04 00:22:36;;;;;;;20.00;4.00;;;6.50;99.90;;;;;;5071245;28;20618;-73
2021/04/04 00:25:06;;;;;;;31.33;3.90;;;6.50;99.90;;;;;;5071244;28;20017;-75
2021/04/04 00:27:31;;;;;;;23.55;4.15;;;6.50;99.90;;;;;;5072229;28;20028;-75
2021/04/04 00:29:58;;;;;;;28.67;3.42;;;6.50;99.90;;;;;;5072246;28;20047;-77
2021/04/04 00:32:23;;;;;;;23.73;3.60;;;6.50;99.90;;;;;;5069950;28;20024;-76
2021/04/04 00:34:49;;;;;;;21.60;4.07;;;6.50;99.90;;;;;;5068655;28;20025;-75
2021/04/04 00:37:15;;;;;;;20.10;4.47;;;6.60;99.90;;;;;;5072402;28;20029;-74
2021/04/04 00:39:41;;;;;;;35.17;5.00;;;6.60;99.90;;;;;;5069518;28;20108;-73
2021/04/04 00:42:06;;;;;;;19.50;4.55;;;6.50;99.90;;;;;;5070711;28;20037;-73
2021/04/04 00:44:33;;;;;;;14.93;4.03;;;6.40;99.90;;;;;;5069891;28;20462;-75
2021/04/04 00:46:58;;;;;;;20.33;3.83;;;6.40;99.90;;;;;;5062154;28;20076;-74
2021/04/04 00:49:24;;;;;;;21.23;4.63;;;6.50;99.90;;;;;;5067658;28;20028;-74
2021/04/04 00:51:50;;;;;;;18.80;4.75;;;6.50;99.90;;;;;;5050638;28;20021;-74
2021/04/04 00:54:15;;;;;;;16.33;4.50;;;6.50;99.90;;;;;;5062005;28;20013;-71
2021/04/04 00:56:41;;;;;;;26.95;4.65;;;6.40;99.90;;;;;;5068413;28;20085;-73
2021/04/04 00:59:07;;;;;;;21.17;4.13;;;6.40;99.90;;;;;;5071396;28;20032;-72
2021/04/04 01:01:33;;;;;;;19.83;3.70;;;6.40;99.90;;;;;;5068961;28;20590;-72
2021/04/04 01:03:59;;;;;;;13.95;4.05;;;6.30;99.90;;;;;;5070240;28;20025;-73
2021/04/04 01:06:25;;;;;;;21.15;4.32;;;6.30;99.90;;;;;;5072326;28;20507;-74
2021/04/04 01:08:51;;;;;;;13.13;3.75;;;6.30;99.90;;;;;;5069368;28;20173;-72
2021/04/04 01:11:41;;;;;;;16.13;3.28;;;6.30;99.90;;;;;;5071672;28;20036;-73
2021/04/04 01:14:38;;;;;;;16.17;3.42;;;6.30;99.90;;;;;;5062593;28;20020;-72
2021/04/04 01:17:05;;;;;;;19.55;3.28;;;6.30;99.90;;;;;;5059416;28;20031;-73
2021/04/04 01:19:45;;;;;;;23.98;3.95;;;6.20;99.90;;;;;;5075191;28;20028;-74
2021/04/04 01:22:22;;;;;;;18.88;3.58;;;6.30;99.90;;;;;;5072970;28;20013;-73
2021/04/04 01:25:35;;;;;;;15.95;3.33;;;6.30;99.90;;;;;;5062843;28;20360;-72
2021/04/04 01:28:27;;;;;;;15.75;2.75;;;6.20;99.90;;;;;;5068432;28;20037;-75
2021/04/04 01:30:54;;;;;;;20.17;4.60;;;6.20;99.90;;;;;;5066810;28;20032;-72
2021/04/04 01:33:21;;;;;;;19.65;4.25;;;6.30;99.90;;;;;;5074025;28;20539;-73
2021/04/04 01:35:50;;;;;;;18.45;3.53;;;6.30;99.90;;;;;;5073525;28;20020;-73
2021/04/04 01:38:23;;;;;;;15.40;3.75;;;6.20;99.90;;;;;;5074689;28;20055;-74
2021/04/04 01:40:55;;;;;;;17.58;3.03;;;6.30;99.90;;;;;;5074795;28;20036;-73
2021/04/04 01:43:21;;;;;;;;;;;6.30;99.90;;;;;;5074335;28;20388;-74
2021/04/04 01:45:49;;;;;;;14.55;3.33;;;6.30;99.90;;;;;;5072892;28;19912;-74
2021/04/04 01:48:15;;;;;;;20.55;4.03;;;6.30;99.90;;;;;;5072782;28;20033;-75
2021/04/04 01:50:42;;;;;;;21.33;4.43;;;6.20;99.90;;;;;;5073921;28;20119;-72
2021/04/04 01:53:09;;;;;;;19.52;3.42;;;6.30;99.90;;;;;;5073084;28;20043;-72
2021/04/04 01:55:39;;;;;;;20.80;3.13;;;6.20;99.90;;;;;;5066269;28;20062;-73
2021/04/04 01:58:08;;;;;;;19.27;3.20;;;6.30;99.90;;;;;;5069832;28;20047;-74
2021/04/04 02:00:36;;;;;;;21.60;4.85;;;6.30;99.90;;;;;;5070266;28;20082;-73
2021/04/04 02:03:02;;;;;;;22.20;4.15;;;6.20;99.90;;;;;;5064887;28;20567;-73
2021/04/04 02:05:29;;;;;;;13.60;3.55;;;6.20;99.90;;;;;;5072191;28;20036;-75
2021/04/04 02:07:56;;;;;;;26.42;4.40;;;6.20;99.90;;;;;;5070274;28;20028;-74
2021/04/04 02:10:25;;;;;;;16.35;4.32;;;6.30;99.90;;;;;;5071592;28;20052;-73
2021/04/04 02:12:53;;;;;;;12.73;3.75;;;6.20;99.90;;;;;;5075123;28;20029;-73
2021/04/04 02:15:21;;;;;;;24.45;4.97;;;6.30;99.90;;;;;;5065393;28;20123;-75
2021/04/04 02:17:48;;;;;;;13.30;3.22;;;6.30;99.90;;;;;;5073012;28;20089;-75
2021/04/04 02:20:20;;;;;;;22.95;3.38;;;6.30;99.90;;;;;;5057004;28;20102;-75
2021/04/04 02:22:48;;;;;;;;;;;6.40;99.90;;;;;;5072461;28;20055;-73
2021/04/04 02:25:15;;;;;;;14.23;4.25;;;6.40;99.90;;;;;;5072398;28;19919;-72
2021/04/04 02:27:42;;;;;;;12.80;4.20;;;6.30;99.90;;;;;;5070327;28;20062;-74
2021/04/04 02:30:08;;;;;;;20.38;3.67;;;6.30;99.90;;;;;;5074306;28;20028;-75
2021/04/04 02:32:42;;;;;;;20.52;4.90;;;6.30;99.90;;;;;;5075107;28;20013;-75
2021/04/04 02:35:09;;;;;;;10.32;3.83;;;6.40;99.90;;;;;;5075406;28;20013;-74
2021/04/04 02:37:38;;;;;;;17.02;4.10;;;6.40;99.90;;;;;;5080995;28;20516;-72
2021/04/04 02:40:06;;;;;;;17.70;4.13;;;6.30;99.90;;;;;;5079643;28;20066;-74
2021/04/04 02:42:35;;;;;;;15.95;3.47;;;6.40;99.90;;;;;;5079352;28;20024;-74
2021/04/04 02:45:02;;;;;;;19.95;4.13;;;6.40;99.90;;;;;;5073218;28;20062;-71
2021/04/04 02:47:34;;;;;;;22.27;4.70;;;6.50;99.90;;;;;;5073305;28;20021;-73
2021/04/04 02:50:01;;;;;;;23.73;3.90;;;6.30;99.90;;;;;;5070914;28;20559;-73
2021/04/04 02:52:29;;;;;;;19.45;3.83;;;6.20;99.90;;;;;;5061216;28;20040;-72
2021/04/04 02:54:57;;;;;;;13.70;3.83;;;6.20;99.90;;;;;;5076257;28;20100;-72
2021/04/04 02:57:28;;;;;;;27.33;4.28;;;6.20;99.90;;;;;;5079371;28;20047;-73
2021/04/04 02:59:58;;;;;;;20.27;5.00;;;6.20;99.90;;;;;;5082289;28;20025;-73
2021/04/04 03:02:27;;;;;;;19.42;4.47;;;6.20;99.90;;;;;;5070365;28;20032;-73
2021/04/04 03:04:56;;;;;;;21.05;4.32;;;6.20;99.90;;;;;;5065213;28;20028;-74
2021/04/04 03:07:27;;;;;;;17.52;5.07;;;6.20;99.90;;;;;;5068684;28;20088;-74
2021/04/04 03:09:54;;;;;;;13.48;3.85;;;6.30;99.90;;;;;;5063330;28;20074;-74
2021/04/04 03:12:26;;;;;;;12.63;3.90;;;6.40;99.90;;;;;;5072982;28;20489;-74
2021/04/04 03:14:56;;;;;;;16.58;4.57;;;6.40;99.90;;;;;;5077180;28;20305;-74
2021/04/04 03:17:22;;;;;;;16.90;4.43;;;6.30;99.90;;;;;;5074789;28;20036;-75
2021/04/04 03:19:49;;;;;;;14.75;4.22;;;6.20;99.90;;;;;;5068705;28;20028;-74
2021/04/04 03:22:17;;;;;;;20.80;4.75;;;6.30;99.90;;;;;;5071221;28;20052;-73
2021/04/04 03:24:43;;;;;;;11.13;4.25;;;6.40;99.90;;;;;;5049126;28;20025;-73
2021/04/04 03:27:10;;;;;;;13.07;4.45;;;6.30;99.90;;;;;;5062741;28;20044;-73
2021/04/04 03:29:38;;;;;;;13.43;4.35;;;6.20;99.90;;;;;;5070969;28;20187;-74
2021/04/04 03:32:05;;;;;;;17.10;4.72;;;6.20;99.90;;;;;;5071912;28;20036;-72
2021/04/04 03:34:31;;;;;;;10.90;5.18;;;6.20;99.90;;;;;;5069862;28;20655;-74
2021/04/04 03:36:57;;;;;;;19.45;5.20;;;6.20;99.90;;;;;;5069567;28;20051;-75
2021/04/04 03:39:25;;;;;;;15.10;5.65;;;6.30;99.90;;;;;;5071361;28;20025;-72
2021/04/04 03:41:52;;;;;;;14.38;5.90;;;6.30;99.90;;;;;;5070521;28;20055;-74
2021/04/04 03:44:23;;;;;;;27.05;6.55;;;6.40;99.90;;;;;;5060748;28;20029;-73
2021/04/04 03:46:50;;;;;;;14.57;5.63;;;6.30;99.90;;;;;;5066844;28;20025;-74
2021/04/04 03:49:18;;;;;;;15.40;4.80;;;6.30;99.90;;;;;;5071194;28;20039;-75
2021/04/04 03:51:45;;;;;;;16.27;5.57;;;6.30;99.90;;;;;;5069876;28;20021;-73
2021/04/04 03:54:13;;;;;;;16.35;5.65;;;6.40;99.90;;;;;;5071098;28;20029;-74
2021/04/04 03:56:46;;;;;;;11.45;5.75;;;6.30;99.90;;;;;;5071474;28;20021;-76
2021/04/04 03:59:13;;;;;;;15.80;5.53;;;6.30;99.90;;;;;;5070843;28;20021;-73
2021/04/04 04:01:43;;;;;;;26.75;5.72;;;6.30;99.90;;;;;;5069905;28;20028;-73
2021/04/04 04:04:11;;;;;;;15.35;5.20;;;6.30;99.90;;;;;;5070901;28;20099;-73
2021/04/04 04:06:45;;;;;;;15.73;4.93;;;6.30;99.90;;;;;;5070608;28;20042;-73
2021/04/04 04:09:13;;;;;;;23.33;6.20;;;6.20;99.90;;;;;;5067726;28;20031;-74
2021/04/04 04:11:42;;;;;;;14.38;5.00;;;6.10;99.90;;;;;;5069995;28;20029;-75
2021/04/04 04:14:11;;;;;;;18.50;5.20;;;6.10;99.90;;;;;;5070155;28;20570;-73
2021/04/04 04:16:37;;;;;;;11.80;5.57;;;6.10;99.90;;;;;;5069853;28;20025;-74
2021/04/04 04:19:05;;;;;;;19.63;6.07;;;6.10;99.90;;;;;;5070672;28;20028;-74
2021/04/04 04:21:34;;;;;;;16.23;5.78;;;6.10;99.90;;;;;;5067841;28;20388;-74
2021/04/04 04:24:05;;;;;;;17.48;7.53;;;6.10;99.90;;;;;;5068093;28;20017;-73
2021/04/04 04:26:34;;;;;;;23.27;6.57;;;6.10;99.90;;;;;;5069938;28;20031;-74
2021/04/04 04:29:05;;;;;;;19.30;6.10;;;6.00;99.90;;;;;;5071002;28;20020;-74
2021/04/04 04:31:36;;;;;;;18.88;6.95;;;6.10;99.90;;;;;;5066057;28;20112;-74
2021/04/04 04:34:05;;;;;;;15.38;5.40;;;6.00;99.90;;;;;;5068284;28;20028;-72
2021/04/04 04:36:32;;;;;;;19.33;6.80;;;6.00;99.90;;;;;;5069678;28;20035;-74
2021/04/04 04:38:59;;;;;;;24.83;6.05;;;6.10;99.90;;;;;;5061520;28;20020;-74
2021/04/04 04:41:25;;;;;;;19.13;6.38;;;6.10;99.90;;;;;;5069595;28;20511;-74
2021/04/04 04:43:58;;;;;;;19.98;8.18;;;6.10;99.90;;;;;;5069224;28;20024;-72
2021/04/04 04:46:25;;;;;;;21.88;6.85;;;6.00;99.90;;;;;;5066738;28;20036;-72
2021/04/04 04:48:51;;;;;;;23.40;7.40;;;6.10;99.90;;;;;;5072788;28;20024;-72
2021/04/04 04:51:22;;;;;;;22.48;7.65;;;6.00;99.90;;;;;;5074453;28;20032;-74
2021/04/04 04:53:51;;;;;;;16.95;7.18;;;6.00;99.90;;;;;;5077424;28;20021;-75
2021/04/04 04:56:18;;;;;;;23.33;8.10;;;6.00;99.90;;;;;;5087787;28;20032;-73
2021/04/04 04:58:44;;;;;;;27.38;8.27;;;6.00;99.90;;;;;;5087879;28;20270;-75
2021/04/04 05:01:16;;;;;;;18.10;8.38;;;6.10;99.90;;;;;;5091622;28;20032;-76
2021/04/04 05:03:42;;;;;;;23.85;8.88;;;6.20;99.90;;;;;;5092123;28;20084;-76
2021/04/04 05:06:10;;;;;;;20.67;9.57;;;6.30;99.90;;;;;;5087791;28;20267;-74
2021/04/04 05:08:44;;;;;;;23.95;9.35;;;6.30;99.90;;;;;;5089161;28;20005;-73
2021/04/04 05:11:14;;;;;;;26.00;10.52;;;6.30;99.90;;;;;;5074893;28;20035;-74
2021/04/04 05:13:41;;;;;;;21.63;10.02;;;6.10;99.90;;;;;;5081100;28;20055;-72
2021/04/04 05:16:12;;;;;;;20.73;10.27;;;6.00;99.90;;;;;;5070585;28;20176;-73
2021/04/04 05:18:44;;;;;;;28.83;11.10;;;6.00;99.90;;;;;;5079731;28;20036;-73
2021/04/04 05:21:10;;;;;;;22.15;10.80;;;6.00;99.90;;;;;;5075920;28;20511;-74
2021/04/04 05:23:37;;;;;;;34.42;11.30;;;6.10;99.90;;;;;;5075505;28;20123;-74
2021/04/04 05:26:02;;;;;;;29.70;11.00;;;6.00;99.90;;;;;;5080956;28;20028;-74
2021/04/04 05:28:28;;;;;;;20.58;9.93;;;6.00;99.90;;;;;;5078845;28;20099;-73
2021/04/04 05:31:01;;;;;;;26.73;9.55;;;6.00;99.90;;;;;;5076199;28;20043;-76
2021/04/04 05:33:26;;;;;;;;;;;6.10;99.90;;;;;;5073759;28;20009;-74
2021/04/04 05:35:52;;;;;;;25.92;9.80;;;6.20;99.90;;;;;;5077067;28;19947;-75
2021/04/04 05:38:17;;;;;;;18.35;9.65;;;6.10;99.90;;;;;;5073086;28;20020;-75
2021/04/04 05:40:46;;;;;;;17.13;9.27;;;6.20;99.90;;;;;;5079202;28;20025;-75
2021/04/04 05:43:13;;;;;;;24.27;10.00;;;6.20;99.90;;;;;;5074152;28;20431;-75
2021/04/04 05:46:17;;;;;;;21.13;7.82;;;6.20;99.90;;;;;;5073653;28;20020;-74
2021/04/04 05:49:03;;;;;;;22.73;8.48;;;6.10;99.90;;;;;;5068690;28;20086;-74
2021/04/04 05:51:41;;;;;;;27.90;8.15;;;6.10;99.90;;;;;;5081549;28;20024;-74
2021/04/04 05:54:43;;;;;;;20.77;7.53;;;6.20;99.90;;;;;;5088409;28;20060;-74
2021/04/04 05:57:19;;;;;;;22.40;7.28;;;6.20;99.90;;;;;;5078717;28;20078;-74
2021/04/04 05:59:54;;;;;;;17.85;8.77;;;6.10;99.90;;;;;;5075509;28;20070;-77
2021/04/04 06:02:32;;;;;;;28.20;8.82;;;6.10;99.90;;;;;;5079335;28;20108;-73
2021/04/04 06:05:02;;;;;;;19.15;8.10;;;6.10;99.90;;;;;;5077645;28;20055;-74
2021/04/04 06:07:59;;;;;;;16.75;8.02;;;6.20;99.90;;;;;;5077622;28;20082;-74
2021/04/04 06:10:37;;;;;;;20.30;8.10;;;6.20;99.90;;;;;;5075347;28;20115;-73
2021/04/04 06:13:18;;;;;;;16.48;8.80;;;6.10;99.90;;;;;;5077270;28;20012;-74
2021/04/04 06:16:10;;;;;;;15.57;9.38;;;6.10;99.90;;;;;;5071793;28;20017;-75
2021/04/04 06:19:08;;;;;;;25.98;10.07;;;6.10;99.90;;;;;;5063694;28;20446;-72
2021/04/04 06:22:04;;;;;;;19.92;9.43;;;6.10;99.90;;;;;;5034789;28;20036;-74
2021/04/04 06:25:15;;;;;;;20.90;9.00;;;6.10;99.90;;;;;;5072230;28;20056;-75
2021/04/04 06:27:50;;;;;;;21.55;8.23;;;6.10;99.90;;;;;;5070547;28;20067;-72
2021/04/04 06:31:08;;;;;;;21.90;9.07;;;6.20;99.90;;;;;;5069883;28;20021;-74
2021/04/04 06:33:39;;;;;;;23.63;8.63;;;6.10;99.90;;;;;;5031777;28;20550;-74
2021/04/04 06:36:27;;;;;;;24.63;8.68;;;6.10;99.90;;;;;;5074882;28;20570;-75
2021/04/04 06:39:16;;;;;;;16.30;7.65;;;6.10;99.90;;;;;;5063514;28;20039;-76
2021/04/04 06:41:48;;;;;;;16.73;7.07;;;6.10;99.90;;;;;;5053780;28;20032;-72
2021/04/04 06:44:13;;;;;;;18.55;8.95;;;6.10;99.90;;;;;;5068471;28;20067;-75
2021/04/04 06:46:48;;;;;;;16.63;7.22;;;6.20;99.90;;;;;;5063574;28;20024;-72
2021/04/04 06:49:32;;;;;;;16.17;7.13;;;6.10;99.90;;;;;;5070190;28;20062;-75
2021/04/04 06:52:34;;;;;;;13.32;5.95;;;6.10;99.90;;;;;;5070443;28;20442;-74
2021/04/04 06:55:10;;;;;;;17.55;5.82;;;6.10;99.90;;;;;;5057273;28;20188;-75
2021/04/04 06:57:45;;;;;;;17.17;5.85;;;6.10;99.90;;;;;;5069425;28;20066;-72
2021/04/04 07:00:14;;;;;;;13.18;6.00;;;6.10;99.90;;;;;;5061659;28;20024;-74
2021/04/04 07:02:48;;;;;;;19.30;6.97;;;6.10;99.90;;;;;;5066573;28;20016;-76
2021/04/04 07:05:17;;;;;;;11.15;5.53;;;6.10;99.90;;;;;;5070615;28;20093;-75
2021/04/04 07:08:18;;;;;;;10.68;4.40;;;6.10;99.90;;;;;;5060763;28;20101;-74
2021/04/04 07:11:12;;;;;;;10.50;4.15;;;6.10;99.90;;;;;;5056458;28;20060;-76
2021/04/04 07:14:11;;;;;;;23.42;4.05;;;6.10;99.90;;;;;;5068538;28;20157;-74
2021/04/04 07:16:58;;;;;;;9.13;3.10;;;6.10;99.90;;;;;;5069714;28;20020;-75
2021/04/04 07:19:51;;;;;;;9.50;3.38;;;6.10;99.90;;;;;;5074258;28;20035;-73
2021/04/04 07:22:34;;;;;;;7.68;2.92;;;6.10;99.90;;;;;;5073384;28;20020;-75
2021/04/04 07:25:23;;;;;;;10.40;3.20;;;6.20;99.90;;;;;;5070836;28;20024;-75
2021/04/04 07:28:15;;;;;;;9.43;3.88;;;6.20;99.90;;;;;;5066139;28;20032;-72
2021/04/04 07:30:58;;;;;;;11.43;3.25;;;6.10;99.90;;;;;;5067299;28;20039;-75
2021/04/04 07:33:37;;;;;;;8.15;3.40;;;6.20;99.90;;;;;;5070929;28;20020;-75
2021/04/04 07:36:28;;;;;;;8.93;2.85;;;6.20;99.90;;;;;;5073898;28;20027;-74
2021/04/04 07:39:05;;;;;;;4.07;2.17;;;6.20;99.90;;;;;;5070590;28;20040;-75
2021/04/04 07:42:05;;;;;;;7.95;1.98;;;6.10;99.90;;;;;;5081926;28;20112;-75
2021/04/04 07:44:34;;;;;;;3.70;1.55;;;6.10;99.90;;;;;;5068108;28;20025;-74
2021/04/04 07:47:06;;;;;;;1.70;1.60;;;6.00;99.90;;;;;;5069023;28;20101;-72
2021/04/04 07:49:40;;;;;;;3.20;1.87;;;6.00;99.90;;;;;;5070894;28;20036;-74
2021/04/04 07:52:15;;;;;;;3.63;1.60;;;6.00;99.90;;;;;;5070630;28;20650;-74
2021/04/04 07:54:53;;;;;;;6.15;1.92;;;6.00;99.90;;;;;;5070179;28;20076;-78
2021/04/04 07:57:42;;;;;;;3.25;1.60;;;6.10;99.90;;;;;;5067731;28;20116;-73
2021/04/04 08:00:11;;;;;;;7.55;1.60;;;6.10;99.90;;;;;;5069934;28;20036;-75
2021/04/04 08:02:57;;;;;;;4.00;1.73;;;6.10;99.90;;;;;;5073056;28;20479;-74
2021/04/04 08:05:26;;;;;;;4.18;2.08;;;6.20;99.90;;;;;;5070418;28;20102;-72
2021/04/04 08:07:57;;;;;;;2.28;1.30;;;6.20;99.90;;;;;;5068164;28;20020;-73
2021/04/04 08:10:28;;;;;;;6.57;1.73;;;6.30;99.90;;;;;;5067808;28;20088;-71
2021/04/04 08:13:12;;;;;;;3.35;1.70;;;6.30;99.90;;;;;;5067049;28;20043;-73
2021/04/04 08:15:45;;;;;;;4.93;2.25;;;6.20;99.90;;;;;;5068430;28;20396;-73
2021/04/04 08:18:11;;;;;;;7.43;1.70;;;6.20;99.90;;;;;;5070671;28;20220;-75
2021/04/04 08:20:42;;;;;;;5.88;2.00;;;6.20;99.90;;;;;;5069848;28;20082;-72
2021/04/04 08:23:17;;;;;;;4.90;2.00;;;6.20;99.90;;;;;;5069893;28;21277;-73
2021/04/04 08:25:59;;;;;;;5.07;2.65;;;6.30;99.90;;;;;;5066029;28;20021;-75
2021/04/04 08:28:38;;;;;;;6.78;2.70;;;6.30;99.90;;;;;;5069761;28;20119;-73
2021/04/04 08:31:22;;;;;;;5.82;2.60;;;6.30;99.90;;;;;;5068455;28;20037;-76
2021/04/04 08:34:10;;;;;;;10.48;3.33;;;6.40;99.90;;;;;;5068724;28;20032;-74
2021/04/04 08:36:42;;;;;;;6.15;2.50;;;6.30;99.90;;;;;;5067582;28;20022;-74
2021/04/04 08:39:10;;;;;;;4.82;2.30;;;6.30;99.90;;;;;;5057336;28;20158;-73
2021/04/04 08:41:37;;;;;;;6.20;2.47;;;6.20;99.90;;;;;;5077595;28;20036;-76
2021/04/04 08:44:29;;;;;;;6.03;2.95;;;6.20;99.90;;;;;;5077082;28;20021;-73
2021/04/04 08:47:30;;;;;;;13.27;2.83;;;6.20;99.90;;;;;;5069629;28;20040;-75
2021/04/04 08:49:59;;;;;;;8.85;2.67;;;6.30;99.90;;;;;;5048285;28;20086;-73
2021/04/04 08:52:38;;;;;;;9.73;2.67;;;6.30;99.90;;;;;;5077339;28;20169;-77
2021/04/04 08:55:04;;;;;;;5.57;2.55;;;6.20;99.90;;;;;;5076923;28;20017;-74
2021/04/04 08:57:51;;;;;;;8.65;2.47;;;6.30;99.90;;;;;;5076500;28;20024;-75
2021/04/04 09:00:18;;;;;;;3.15;1.95;;;6.40;99.90;;;;;;5077077;28;20027;-75
2021/04/04 09:02:51;;;;;;;9.85;2.13;;;6.30;99.90;;;;;;5075115;28;20028;-75
2021/04/04 09:05:21;;;;;;;3.42;1.70;;;6.40;99.90;;;;;;5075682;28;20051;-74
2021/04/04 09:07:47;;;;;;;7.18;2.25;;;6.50;99.90;;;;;;5076897;28;20013;-75
2021/04/04 09:10:16;;;;;;;7.30;2.15;;;6.60;99.90;;;;;;5080060;28;20024;-75
2021/04/04 09:12:43;;;;;;;4.35;2.20;;;6.50;99.90;;;;;;5050111;28;20029;-73
2021/04/04 09:15:11;;;;;;;10.25;2.70;;;6.70;99.90;;;;;;5078600;28;20024;-75
2021/04/04 09:17:37;;;;;;;7.50;2.08;;;6.60;99.90;;;;;;5078433;28;20055;-74
2021/04/04 09:20:08;;;;;;;6.28;1.88;;;6.70;99.90;;;;;;5077949;28;20020;-73
2021/04/04 09:22:37;;;;;;;10.98;2.30;;;6.60;99.90;;;;;;5084023;28;20184;-72
2021/04/04 09:25:09;;;;;;;4.40;1.75;;;6.60;99.90;;;;;;5069407;28;20020;-75
2021/04/04 09:27:40;;;;;;;5.80;2.42;;;6.70;99.90;;;;;;5068332;28;20112;-73
2021/04/04 09:30:22;;;;;;;10.60;2.38;;;6.70;99.90;;;;;;5076858;28;20040;-73
2021/04/04 09:32:52;;;;;;;4.35;1.70;;;6.70;99.90;;;;;;5074342;28;20031;-76
2021/04/04 09:35:21;;;;;;;10.15;2.50;;;6.70;99.90;;;;;;5077896;28;20108;-74
2021/04/04 09:37:48;;;;;;;13.23;2.50;;;6.60;99.90;;;;;;5069496;28;20074;-75
2021/04/04 09:40:18;;;;;;;7.88;2.50;;;6.70;99.90;;;;;;5076964;28;20033;-75
2021/04/04 09:42:45;;;;;;;11.77;2.60;;;6.90;99.90;;;;;;5069692;28;20084;-73
2021/04/04 09:45:18;;;;;;;8.70;2.60;;;7.10;99.90;;;;;;5077799;28;20039;-76
2021/04/04 09:47:45;;;;;;;10.90;2.67;;;7.10;99.90;;;;;;5080787;28;20099;-72
2021/04/04 09:50:22;;;;;;;10.43;2.60;;;7.10;99.90;;;;;;5090010;28;20104;-74
2021/04/04 09:52:49;;;;;;;10.55;3.50;;;7.00;99.90;;;;;;5063538;28;20168;-74
2021/04/04 09:55:18;;;;;;;11.50;4.25;;;7.20;99.90;;;;;;5073549;28;20051;-72
2021/04/04 09:57:54;;;;;;;11.48;4.53;;;7.40;99.90;;;;;;5079439;28;20032;-73
2021/04/04 10:00:37;;;;;;;12.85;3.00;;;7.10;99.90;;;;;;5077881;28;20027;-75
2021/04/04 10:03:16;;;;;;;8.05;2.72;;;6.90;99.90;;;;;;5073437;28;20074;-73
2021/04/04 10:05:46;;;;;;;10.75;2.92;;;7.00;99.90;;;;;;5073540;28;20020;-74
2021/04/04 10:08:23;;;;;;;13.43;3.33;;;7.10;99.90;;;;;;5076397;28;20017;-72
2021/04/04 10:10:51;;;;;;;9.15;3.05;;;7.20;99.90;;;;;;5074319;28;20040;-75
2021/04/04 10:13:26;;;;;;;7.35;3.08;;;7.10;99.90;;;;;;5076566;28;20025;-73
2021/04/04 10:15:53;;;;;;;11.88;3.50;;;7.10;99.90;;;;;;5076147;28;20020;-75
2021/04/04 10:18:21;;;;;;;7.10;3.22;;;7.40;99.90;;;;;;5055826;28;20560;-75
2021/04/04 10:20:51;;;;;;;6.78;2.78;;;7.40;99.90;;;;;;5071480;28;20132;-77
2021/04/04 10:23:18;;;;;;;10.45;3.22;;;7.40;99.90;;;;;;5068039;28;20242;-75
2021/04/04 10:25:58;;;;;;;14.45;3.30;;;7.40;99.90;;;;;;5068608;28;20092;-73
2021/04/04 10:28:25;;;;;;;6.43;3.10;;;7.50;99.90;;;;;;5073611;28;20024;-75
2021/04/04 10:30:55;;;;;;;10.40;3.17;;;7.50;99.90;;;;;;5073422;28;20060;-74
2021/04/04 10:33:27;;;;;;;8.07;3.33;;;7.40;99.90;;;;;;5058468;28;20361;-74
2021/04/04 10:35:54;;;;;;;10.88;3.53;;;7.40;99.90;;;;;;5074172;28;20055;-73
2021/04/04 10:38:21;;;;;;;8.23;2.78;;;7.40;99.90;;;;;;5072663;28;20341;-74
2021/04/04 10:40:49;;;;;;;12.13;2.78;;;7.40;99.90;;;;;;5074813;28;20040;-75
2021/04/04 10:43:17;;;;;;;10.85;2.83;;;7.40;99.90;;;;;;5073695;28;20036;-73
2021/04/04 10:46:04;;;;;;;11.80;2.95;;;7.50;99.90;;;;;;5075276;28;20231;-74
2021/04/04 10:48:33;;;;;;;13.30;3.40;;;7.60;99.90;;;;;;5071977;28;20308;-73
2021/04/04 10:50:59;;;;;;;9.38;2.63;;;7.40;99.90;;;;;;5073895;28;20120;-75
2021/04/04 10:53:25;;;;;;;6.38;2.42;;;7.40;99.90;;;;;;5061732;28;20370;-74
2021/04/04 10:55:51;;;;;;;5.88;2.85;;;7.70;99.90;;;;;;5078795;28;20092;-74
2021/04/04 10:58:20;;;;;;;7.40;2.53;;;7.90;99.90;;;;;;5076581;28;20028;-74
2021/04/04 11:00:46;;;;;;;11.43;3.10;;;7.70;99.90;;;;;;5071456;28;20024;-71
2021/04/04 11:03:13;;;;;;;11.30;3.50;;;7.60;99.90;;;;;;5067669;28;20052;-73
2021/04/04 11:05:38;;;;;;;8.75;2.38;;;7.70;99.90;;;;;;5071959;28;20016;-74
2021/04/04 11:08:04;;;;;;;7.07;3.00;;;7.70;99.90;;;;;;5071431;28;20027;-73
2021/04/04 11:10:30;;;;;;;11.93;3.00;;;7.50;99.90;;;;;;5070973;28;20056;-74
2021/04/04 11:12:59;;;;;;;6.10;2.50;;;7.40;99.90;;;;;;5077188;28;20072;-73
2021/04/04 11:15:29;;;;;;;6.30;2.50;;;7.50;99.90;;;;;;5071748;28;20070;-74
2021/04/04 11:17:56;;;;;;;8.05;2.88;;;7.60;99.90;;;;;;5058932;28;20017;-73
2021/04/04 11:20:23;;;;;;;12.05;2.45;;;7.50;99.90;;;;;;5072897;28;20024;-74
2021/04/04 11:22:49;;;;;;;13.52;2.92;;;7.50;99.90;;;;;;5070747;28;20031;-74
2021/04/04 11:25:17;;;;;;;13.77;3.92;;;7.50;99.90;;;;;;5072210;28;20016;-77
2021/04/04 11:27:48;;;;;;;10.98;3.65;;;7.40;99.90;;;;;;5067134;28;20704;-73
2021/04/04 11:30:33;;;;;;;9.73;3.33;;;7.30;99.90;;;;;;5070800;28;20032;-74
2021/04/04 11:33:19;;;;;;;6.57;2.92;;;7.60;99.90;;;;;;5068305;28;20040;-75
2021/04/04 11:36:06;;;;;;;14.68;2.90;;;8.00;99.90;;;;;;5072768;28;20066;-74
2021/04/04 11:38:34;;;;;;;18.25;3.08;;;8.20;99.90;;;;;;5070021;28;20082;-74
2021/04/04 11:41:19;;;;;;;7.88;2.97;;;8.40;99.90;;;;;;5073798;28;20012;-75
2021/04/04 11:44:20;;;;;;;7.15;2.80;;;8.50;99.90;;;;;;5072667;28;20024;-77
2021/04/04 11:46:51;;;;;;;8.10;3.55;;;8.50;99.90;;;;;;5070432;28;20040;-72
2021/04/04 11:49:37;;;;;;;6.53;2.85;;;8.60;99.90;;;;;;5070563;28;20033;-76
2021/04/04 11:52:09;;;;;;;7.72;3.33;;;8.60;99.90;;;;;;5072305;28;20024;-73
2021/04/04 11:54:49;;;;;;;6.60;3.63;;;8.70;99.90;;;;;;5069313;28;20029;-73
2021/04/04 11:57:25;;;;;;;8.02;2.85;;;8.50;99.90;;;;;;5071675;28;20628;-75
2021/04/04 11:59:56;;;;;;;4.57;2.42;;;8.60;99.90;;;;;;5073117;28;20025;-71
2021/04/04 12:02:27;;;;;;;7.05;3.28;;;8.70;99.90;;;;;;5073214;28;20021;-74
2021/04/04 12:05:08;;;;;;;8.40;2.80;;;8.90;99.90;;;;;;5077587;28;20035;-76
2021/04/04 12:07:56;;;;;;;8.98;4.10;;;8.70;99.90;;;;;;5075262;28;20030;-72
2021/04/04 12:10:24;;;;;;;12.07;3.70;;;8.90;99.90;;;;;;5070913;28;20037;-72
2021/04/04 12:12:50;;;;;;;6.13;2.92;;;9.00;99.90;;;;;;5068857;28;20020;-72
2021/04/04 12:15:18;;;;;;;5.00;2.75;;;8.30;99.90;;;;;;5072300;28;20586;-73
2021/04/04 12:17:51;;;;;;;11.68;2.92;;;8.20;99.90;;;;;;5071744;28;20034;-73
2021/04/04 12:20:29;;;;;;;8.98;2.83;;;8.10;99.90;;;;;;5071376;28;20029;-73
2021/04/04 12:22:56;;;;;;;9.20;2.88;;;8.30;99.90;;;;;;5071841;28;20012;-77
2021/04/04 12:25:25;;;;;;;13.07;3.35;;;8.80;99.90;;;;;;5073277;28;20020;-74
2021/04/04 12:27:53;;;;;;;8.73;3.35;;;8.80;99.90;;;;;;5074350;28;20317;-73
2021/04/04 12:30:31;;;;;;;6.15;3.58;;;8.50;99.90;;;;;;5064502;28;20035;-77
2021/04/04 12:33:01;;;;;;;10.85;4.65;;;8.30;99.90;;;;;;5069237;28;20017;-72
2021/04/04 12:35:28;;;;;;;11.75;4.55;;;8.60;99.90;;;;;;5054790;28;20017;-75
2021/04/04 12:37:54;;;;;;;10.57;4.32;;;8.90;99.90;;;;;;5073888;28;20070;-73
2021/04/04 12:40:20;;;;;;;13.07;5.28;;;9.20;99.90;;;;;;5072326;28;20480;-73
2021/04/04 12:42:46;;;;;;;11.75;4.13;;;9.30;99.90;;;;;;5074294;28;20033;-71
2021/04/04 12:45:14;;;;;;;15.27;5.13;;;9.30;99.90;;;;;;5074309;28;20020;-73
2021/04/04 12:47:43;;;;;;;14.25;4.93;;;9.20;99.90;;;;;;5076421;28;20076;-73
2021/04/04 12:50:15;;;;;;;11.23;5.82;;;9.30;99.90;;;;;;5086754;28;20119;-73
2021/04/04 12:52:48;;;;;;;11.05;5.35;;;9.40;99.90;;;;;;5071687;28;20032;-73
2021/04/04 12:55:33;;;;;;;9.00;5.53;;;9.30;99.90;;;;;;5058843;28;20029;-74
2021/04/04 12:58:03;;;;;;;17.20;7.07;;;9.20;99.90;;;;;;5072908;28;20359;-71
2021/04/04 13:00:35;;;;;;;19.48;7.97;;;9.20;99.90;;;;;;5073530;28;20597;-74
2021/04/04 13:03:16;;;;;;;13.18;6.18;;;9.00;99.90;;;;;;5066136;28;20040;-72
2021/04/04 13:05:52;;;;;;;18.33;7.88;;;9.00;99.90;;;;;;5070705;28;20514;-73
2021/04/04 13:08:26;;;;;;;11.18;7.28;;;9.00;99.90;;;;;;5072401;28;20035;-74
2021/04/04 13:10:57;;;;;;;14.85;7.95;;;9.00;99.90;;;;;;5070310;28;20020;-72
2021/04/04 13:13:36;;;;;;;20.33;7.80;;;8.90;99.90;;;;;;5071758;28;20111;-75
2021/04/04 13:16:08;;;;;;;18.00;6.93;;;8.80;99.90;;;;;;5074455;28;20066;-73
2021/04/04 13:18:48;;;;;;;14.10;7.85;;;8.90;99.90;;;;;;5071449;28;20013;-73